Accueil
METAR-TAF:

METAR-TAF

Aéroports :

Iekaterinbourg, Russie

Aéroport Koltsovo

latitude: 56-50N, longitude: 060-38E, altitude: 237 m

Observation

Le bulletin a été fait il y a 37 minutes, à 09:00 UTC
Vent 10 kt de nord-ouest, variant entre ouest et nord
Température 7°C
Humidité 39%
Pression 1007 hPa
Visibilité 10 km ou plus
pas de nuages en-dessous de 1500 mètres et pas de cumulonimbus.

METAR: USSS 290900Z 31005MPS 260V350 CAVOK 07/M06 Q1007 R26R/010060 NOSIG RMK QFE735/0980

Heure: 14:37 (09:37 UTC)

Prévision

Le bulletin a été fait il y a 1 heure et 42 minutes, à 07:55 UTC
Prévision valable du 29 à 09 UTC au 30 à 09 UTC
Vent 8 kt de nord-ouest
Visibilité 10 km ou plus
Nuages épars à une hauteur de 2000 ft, Cumulonimbus.
Temporairement
du 29 à 09 UTC au 29 à 21 UTC
Vent 17 kt de nord-ouest

TAF: USSS 290755Z 2909/3009 31004MPS 9999 SCT020CB TEMPO 2909/2921 32009MPS

Observations et prévisions météorologiques de plus de 4000 aéroports (messages METAR et TAF).

Les stations disponibles sont représentées par des disques jaunes et rouges sur la carte.

Passer la souris dessus pour voir le nom de la station.

Cliquer dessus pour voir les observations et prévisions météorologiques.

Pour changer de carte: cliquez sur les boutons verts avec une croix noire pour zoomer, sur le bouton vert avec un tiret pour effectuer un zoom arrière, ou sur les flèches vertes pour les cartes adjacentes.


METAR-TAF: